ADDS METAR Data INFO
IDs: Format: Raw Decoded Include TAF

Data at: 1012 UTC 14 Dec 2017

PAPN 140956Z AUTO 12008KT 10SM FEW110 M01/M01 A2959 RMK AO2 SLP023 T10061011 FZRANO
PAPN 140856Z AUTO 10007KT 10SM CLR M02/M02 A2959 RMK AO2 SLP022 T10171022 50002 FZRANO
PAPN 140756Z AUTO 11008KT 10SM CLR M01/M01 A2959 RMK AO2 SLP023 T10061011 400391022 FZRANO
PAPN 140656Z AUTO 11006KT 10SM CLR M01/M01 A2959 RMK AO2 SLP023 T10061011 FZRANO
PAPN 140556Z AUTO 10010KT 10SM CLR M01/M02 A2959 RMK AO2 SLP020 T10111017 10028 21022 51005 FZRANO
PAPN 140456Z AUTO 09004KT 5SM BR FEW075 M01/M02 A2959 RMK AO2 SLP020 T10111017 FZRANO
PAPN 140356Z AUTO 09005KT 10SM CLR M01/M01 A2958 RMK AO2 SLP018 T10061011 FZRANO
PAPN 140256Z AUTO 12005KT 10SM CLR 00/M01 A2957 RMK AO2 SLP016 T00001006 53014 FZRANO
PAPN 140156Z AUTO 00000KT 10SM FEW050 01/00 A2955 RMK AO2 SLP008 T00060000 FZRANO
PAPN 140056Z AUTO 23006KT 10SM SCT031 OVC055 03/02 A2954 RMK AO2 SLP004 T00280017
PAPN 140045Z AUTO 21005KT 10SM BKN031 OVC055 03/02 A2954 RMK AO2
PAPN 140019Z AUTO 22008KT 10SM BKN027 OVC055 03/02 A2953 RMK AO2
PAPN 132356Z AUTO 21010KT 10SM FEW008 OVC055 02/02 A2953 RMK AO2 SLP002 T00220017 10033 20011 51017 FZRANO
PAPN 132331Z AUTO 21011KT 10SM FEW008 OVC049 03/02 A2953 RMK AO2
PAPN 132256Z AUTO 22009KT 10SM OVC049 03/02 A2952 RMK AO2 SLP997 T00280022
PAPN 132223Z AUTO 22011KT 10SM SCT003 OVC047 02/02 A2952 RMK AO2 FZRANO
PAPN 132156Z AUTO 21011KT 10SM OVC003 02/02 A2951 RMK AO2 SLP994 T00220022 FZRANO
PAPN 132110Z AUTO 22012KT 3SM BR OVC003 02/02 A2949 RMK AO2 CIG 002V005 FZRANO
PAPN 132056Z AUTO 22014KT 1 1/4SM BR OVC003 02/02 A2948 RMK AO2 CIG 002V006 SLP985 T00220017 51021 FZRANO
PAPN 132051Z AUTO 22013KT 1SM BR OVC003 02/02 A2948 RMK AO2 CIG 003V006 FZRANO
PAPN 132028Z AUTO 21008KT 1 3/4SM BR OVC003 02/02 A2947 RMK AO2 FZRANO
PAPN 131956Z AUTO 21010KT 10SM BKN003 OVC045 01/01 A2945 RMK AO2 SLP973 T00110006 FZRANO
PAPN 131941Z AUTO 21010KT 10SM SCT003 SCT023 OVC047 01/01 A2944 RMK AO2 FZRANO
PAPN 131935Z AUTO 21009KT 10SM SCT003 BKN010 OVC047 01/01 A2943 RMK AO2 CIG 008V012 FZRANO
PAPN 131933Z AUTO 20009KT 10SM FEW003 BKN038 OVC047 01/01 A2943 RMK AO2 FZRANO
PAPN 131925Z AUTO 21009KT 10SM SCT012 BKN029 OVC047 01/01 A2943 RMK AO2 FZRANO
PAPN 131913Z AUTO 21009KT 10SM BKN012 OVC029 01/01 A2942 RMK AO2 FZRANO
PAPN 131856Z AUTO 22010KT 10SM OVC029 01/01 A2942 RMK AO2 SLP964 T00110006 FZRANO
PAPN 131806Z AUTO 21008KT 10SM BKN027 OVC045 01/01 A2939 RMK AO2 FZRANO
PAPN 131756Z AUTO 21010KT 10SM SCT025 OVC045 01/01 A2939 RMK AO2 SLP953 60000 T00110006 10022 20011 51018 FZRANO
PAPN 131753Z AUTO 21008KT 10SM FEW025 OVC045 01/01 A2939 RMK AO2 FZRANO
PAPN 131704Z AUTO 22008KT 10SM BKN021 OVC030 01/01 A2937 RMK AO2 FZRANO
PAPN 131656Z AUTO 21008KT 10SM SCT021 OVC030 01/01 A2936 RMK AO2 RAE05UPB05E21 SLP945 P0000 T00110011 FZRANO
PAPN 131556Z AUTO 22005KT 10SM -RA BKN055 OVC070 02/01 A2933 RMK AO2 UPE1459B27E42RAB1459E27B56 SLP935 P0000 T00170011 FZRANO
PAPN 131540Z AUTO 21004KT 10SM UP SCT022 OVC055 01/01 A2933 RMK AO2 UPE1459B27RAB1459E27 P0000 FZRANO
PAPN 131456Z AUTO 32003KT 10SM UP FEW005 SCT010 OVC022 01/01 A2933 RMK AO2 UPB1359 SLP932 P0000 60000 T00110011 55000 FZRANO
PAPN 131448Z AUTO 00000KT 10SM UP SCT005 OVC022 01/01 A2933 RMK AO2 UPB1359 P0000 FZRANO
PAPN 131426Z AUTO 29003KT 10SM UP BKN022 BKN031 OVC060 01/01 A2932 RMK AO2 UPB1359 P0000 FZRANO
PAPN 131356Z AUTO 23003KT 10SM SCT060 BKN080 OVC090 01/01 A2932 RMK AO2 UPE48 SLP930 P0000 T00110006 FZRANO
PAPN 131256Z AUTO 00000KT 10SM UP SCT040 OVC055 02/01 A2932 RMK AO2 UPE09B43RAB09E43 SLP930 P0000 T00170011 FZRANO
PAPN 131156Z AUTO 10005KT 10SM UP SCT042 BKN049 OVC055 02/02 A2933 RMK AO2 UPE06B56RAB06E16 SLP932 P0000 60000 70004 T00220017 10044 20017 56017 FZRANO
PAPN 131056Z AUTO 08006KT 10SM UP OVC050 03/02 A2934 RMK AO2 UPB46 SLP936 P0000 T00280017
PAPN 130956Z AUTO 09008KT 10SM SCT055 BKN070 OVC100 02/01 A2935 RMK AO2 RAE00 SLP942 P0000 T00220011 FZRANO
PAPN 130856Z AUTO 09009KT 10SM -RA BKN040 BKN060 OVC075 03/02 A2938 RMK AO2 RAB22 SLP950 P0000 60000 T00280017 58001
PAPN 130756Z AUTO 11016KT 10SM FEW070 BKN090 OVC110 04/02 A2938 RMK AO2 SLP951 T00390017 400610017
PAPN 130656Z AUTO 11006KT 10SM CLR 04/02 A2938 RMK AO2 SLP951 T00390017
PAPN 130556Z AUTO 10008KT 10SM CLR 04/01 A2938 RMK AO2 SLP950 T00390006 10056 20017 53016
PAPN 130456Z AUTO 10007KT 10SM CLR 03/01 A2936 RMK AO2 SLP944 T00280006
PAPN 130356Z AUTO 11007KT 10SM CLR 04/01 A2935 RMK AO2 SLP941 T00390011
PAPN 130256Z AUTO 13009KT 10SM FEW034 SCT041 04/01 A2933 RMK AO2 SLP935 T00440011 51032
PAPN 130156Z AUTO 11009KT 10SM FEW030 BKN038 BKN047 04/01 A2931 RMK AO2 SLP927 T00390011
PAPN 130056Z AUTO 13010KT 10SM FEW047 04/02 A2928 RMK AO2 PK WND 14026/0004 SLP915 T00440017
PAPN 122356Z AUTO 14016G22KT 10SM CLR 06/02 A2924 RMK AO2 SLP902 60001 T00560022 10061 20044 51011
PAPN 122256Z AUTO 14011G20KT 10SM CLR 06/03 A2924 RMK AO2 PK WND 15027/2238 SLP902 T00560028